sensor_id;sensor_type;location;lat;lon;timestamp;P1;durP1;ratioP1;P2;durP2;ratioP2
59972;SDS011;55298;-36.624;-64.282;2023-09-30T00:00:59;4.75;;;3.17;;
59972;SDS011;55298;-36.624;-64.282;2023-09-30T00:03:28;5.38;;;3.03;;
59972;SDS011;55298;-36.624;-64.282;2023-09-30T00:05:56;5.55;;;2.92;;
59972;SDS011;55298;-36.624;-64.282;2023-09-30T00:08:25;7.68;;;3.22;;
59972;SDS011;55298;-36.624;-64.282;2023-09-30T00:10:53;7.72;;;3.40;;
59972;SDS011;55298;-36.624;-64.282;2023-09-30T00:13:22;6.32;;;4.20;;
59972;SDS011;55298;-36.624;-64.282;2023-09-30T00:15:55;13.93;;;9.75;;
59972;SDS011;55298;-36.624;-64.282;2023-09-30T00:18:23;5.70;;;3.70;;
59972;SDS011;55298;-36.624;-64.282;2023-09-30T00:20:51;8.10;;;5.65;;
59972;SDS011;55298;-36.624;-64.282;2023-09-30T00:23:19;8.45;;;5.30;;
59972;SDS011;55298;-36.624;-64.282;2023-09-30T00:25:47;11.82;;;4.78;;
59972;SDS011;55298;-36.624;-64.282;2023-09-30T00:28:15;8.63;;;3.67;;
59972;SDS011;55298;-36.624;-64.282;2023-09-30T00:30:44;6.88;;;4.25;;
59972;SDS011;55298;-36.624;-64.282;2023-09-30T00:33:13;6.75;;;3.60;;
59972;SDS011;55298;-36.624;-64.282;2023-09-30T00:35:41;10.57;;;6.43;;
59972;SDS011;55298;-36.624;-64.282;2023-09-30T00:38:09;11.18;;;5.78;;
59972;SDS011;55298;-36.624;-64.282;2023-09-30T00:40:37;9.20;;;5.38;;
59972;SDS011;55298;-36.624;-64.282;2023-09-30T00:43:04;8.32;;;4.68;;
59972;SDS011;55298;-36.624;-64.282;2023-09-30T00:45:32;6.10;;;4.82;;
59972;SDS011;55298;-36.624;-64.282;2023-09-30T00:48:01;5.50;;;3.10;;
59972;SDS011;55298;-36.624;-64.282;2023-09-30T00:50:29;5.60;;;3.30;;
59972;SDS011;55298;-36.624;-64.282;2023-09-30T00:52:57;5.22;;;3.90;;
59972;SDS011;55298;-36.624;-64.282;2023-09-30T00:55:25;9.70;;;4.95;;
59972;SDS011;55298;-36.624;-64.282;2023-09-30T00:57:52;8.98;;;7.43;;
59972;SDS011;55298;-36.624;-64.282;2023-09-30T01:00:21;7.65;;;4.93;;
59972;SDS011;55298;-36.624;-64.282;2023-09-30T01:02:50;7.50;;;4.50;;
59972;SDS011;55298;-36.624;-64.282;2023-09-30T01:05:19;8.70;;;4.70;;
59972;SDS011;55298;-36.624;-64.282;2023-09-30T01:07:50;8.75;;;5.90;;
59972;SDS011;55298;-36.624;-64.282;2023-09-30T01:10:20;12.90;;;7.68;;
59972;SDS011;55298;-36.624;-64.282;2023-09-30T01:12:48;12.65;;;6.70;;
59972;SDS011;55298;-36.624;-64.282;2023-09-30T01:15:16;11.80;;;5.68;;
59972;SDS011;55298;-36.624;-64.282;2023-09-30T01:17:43;9.23;;;5.03;;
59972;SDS011;55298;-36.624;-64.282;2023-09-30T01:20:12;5.22;;;4.63;;
59972;SDS011;55298;-36.624;-64.282;2023-09-30T01:22:42;5.88;;;3.85;;
59972;SDS011;55298;-36.624;-64.282;2023-09-30T01:25:10;7.22;;;4.07;;
59972;SDS011;55298;-36.624;-64.282;2023-09-30T01:27:38;5.25;;;3.78;;
59972;SDS011;55298;-36.624;-64.282;2023-09-30T01:30:06;11.60;;;4.82;;
59972;SDS011;55298;-36.624;-64.282;2023-09-30T01:32:37;7.03;;;4.53;;
59972;SDS011;55298;-36.624;-64.282;2023-09-30T01:35:05;10.30;;;6.18;;
59972;SDS011;55298;-36.624;-64.282;2023-09-30T01:37:33;17.52;;;9.38;;
59972;SDS011;55298;-36.624;-64.282;2023-09-30T01:40:02;14.45;;;9.02;;
59972;SDS011;55298;-36.624;-64.282;2023-09-30T01:42:34;14.43;;;8.40;;
59972;SDS011;55298;-36.624;-64.282;2023-09-30T01:45:02;10.73;;;6.35;;
59972;SDS011;55298;-36.624;-64.282;2023-09-30T01:47:30;9.90;;;5.47;;
59972;SDS011;55298;-36.624;-64.282;2023-09-30T01:49:57;9.35;;;4.93;;
59972;SDS011;55298;-36.624;-64.282;2023-09-30T01:52:25;12.48;;;5.40;;
59972;SDS011;55298;-36.624;-64.282;2023-09-30T01:54:54;6.68;;;3.58;;
59972;SDS011;55298;-36.624;-64.282;2023-09-30T01:57:25;3.80;;;3.05;;
59972;SDS011;55298;-36.624;-64.282;2023-09-30T01:59:53;3.53;;;3.33;;
59972;SDS011;55298;-36.624;-64.282;2023-09-30T02:02:21;5.55;;;3.70;;
59972;SDS011;55298;-36.624;-64.282;2023-09-30T02:04:49;5.65;;;3.85;;
59972;SDS011;55298;-36.624;-64.282;2023-09-30T02:07:16;3.08;;;2.88;;
59972;SDS011;55298;-36.624;-64.282;2023-09-30T02:09:44;3.88;;;3.00;;
59972;SDS011;55298;-36.624;-64.282;2023-09-30T02:12:15;6.70;;;3.85;;
59972;SDS011;55298;-36.624;-64.282;2023-09-30T02:14:43;4.07;;;3.65;;
59972;SDS011;55298;-36.624;-64.282;2023-09-30T02:17:12;6.43;;;3.47;;
59972;SDS011;55298;-36.624;-64.282;2023-09-30T02:19:39;7.22;;;3.50;;
59972;SDS011;55298;-36.624;-64.282;2023-09-30T02:22:07;5.30;;;3.70;;
59972;SDS011;55298;-36.624;-64.282;2023-09-30T02:24:35;5.65;;;4.15;;
59972;SDS011;55298;-36.624;-64.282;2023-09-30T02:27:07;3.63;;;3.30;;
59972;SDS011;55298;-36.624;-64.282;2023-09-30T02:29:34;3.55;;;2.85;;
59972;SDS011;55298;-36.624;-64.282;2023-09-30T02:32:03;6.20;;;3.08;;
59972;SDS011;55298;-36.624;-64.282;2023-09-30T02:34:31;4.20;;;3.03;;
59972;SDS011;55298;-36.624;-64.282;2023-09-30T02:37:01;3.50;;;2.95;;
59972;SDS011;55298;-36.624;-64.282;2023-09-30T02:39:29;6.80;;;3.20;;
59972;SDS011;55298;-36.624;-64.282;2023-09-30T02:41:58;6.43;;;3.28;;
59972;SDS011;55298;-36.624;-64.282;2023-09-30T02:44:27;3.28;;;3.05;;
59972;SDS011;55298;-36.624;-64.282;2023-09-30T02:46:55;4.80;;;2.80;;
59972;SDS011;55298;-36.624;-64.282;2023-09-30T02:49:23;3.05;;;2.85;;
59972;SDS011;55298;-36.624;-64.282;2023-09-30T02:51:51;3.85;;;3.00;;
59972;SDS011;55298;-36.624;-64.282;2023-09-30T02:54:18;3.90;;;3.60;;
59972;SDS011;55298;-36.624;-64.282;2023-09-30T02:56:46;4.55;;;3.00;;
59972;SDS011;55298;-36.624;-64.282;2023-09-30T02:59:14;7.78;;;4.43;;
59972;SDS011;55298;-36.624;-64.282;2023-09-30T03:01:42;4.03;;;3.20;;
59972;SDS011;55298;-36.624;-64.282;2023-09-30T03:04:10;3.88;;;3.28;;
59972;SDS011;55298;-36.624;-64.282;2023-09-30T03:06:38;5.32;;;3.63;;
59972;SDS011;55298;-36.624;-64.282;2023-09-30T03:09:08;4.70;;;3.00;;
59972;SDS011;55298;-36.624;-64.282;2023-09-30T03:11:37;3.33;;;3.10;;
59972;SDS011;55298;-36.624;-64.282;2023-09-30T03:14:05;6.60;;;3.20;;
59972;SDS011;55298;-36.624;-64.282;2023-09-30T03:16:33;5.22;;;3.42;;
59972;SDS011;55298;-36.624;-64.282;2023-09-30T03:19:04;6.63;;;3.88;;
59972;SDS011;55298;-36.624;-64.282;2023-09-30T03:21:34;7.18;;;3.95;;
59972;SDS011;55298;-36.624;-64.282;2023-09-30T03:24:02;5.53;;;4.03;;
59972;SDS011;55298;-36.624;-64.282;2023-09-30T03:26:33;3.00;;;2.80;;
59972;SDS011;55298;-36.624;-64.282;2023-09-30T03:29:01;4.18;;;3.78;;
59972;SDS011;55298;-36.624;-64.282;2023-09-30T03:31:31;4.30;;;3.15;;
59972;SDS011;55298;-36.624;-64.282;2023-09-30T03:33:59;5.28;;;3.58;;
59972;SDS011;55298;-36.624;-64.282;2023-09-30T03:36:27;3.38;;;3.08;;
59972;SDS011;55298;-36.624;-64.282;2023-09-30T03:38:54;6.28;;;2.95;;
59972;SDS011;55298;-36.624;-64.282;2023-09-30T03:41:26;10.30;;;3.35;;
59972;SDS011;55298;-36.624;-64.282;2023-09-30T03:43:54;5.57;;;3.50;;
59972;SDS011;55298;-36.624;-64.282;2023-09-30T03:46:25;3.50;;;3.20;;
59972;SDS011;55298;-36.624;-64.282;2023-09-30T03:48:53;3.38;;;3.10;;
59972;SDS011;55298;-36.624;-64.282;2023-09-30T03:51:21;4.25;;;3.03;;
59972;SDS011;55298;-36.624;-64.282;2023-09-30T03:53:51;2.83;;;2.72;;
59972;SDS011;55298;-36.624;-64.282;2023-09-30T03:56:18;3.90;;;3.15;;
59972;SDS011;55298;-36.624;-64.282;2023-09-30T03:58:48;4.10;;;3.00;;
59972;SDS011;55298;-36.624;-64.282;2023-09-30T04:01:15;3.40;;;3.20;;
59972;SDS011;55298;-36.624;-64.282;2023-09-30T04:03:45;4.38;;;4.03;;
59972;SDS011;55298;-36.624;-64.282;2023-09-30T04:06:13;4.85;;;3.83;;
59972;SDS011;55298;-36.624;-64.282;2023-09-30T04:08:41;5.05;;;3.38;;
59972;SDS011;55298;-36.624;-64.282;2023-09-30T04:11:09;3.63;;;3.35;;
59972;SDS011;55298;-36.624;-64.282;2023-09-30T04:13:44;5.65;;;3.38;;
59972;SDS011;55298;-36.624;-64.282;2023-09-30T04:16:12;4.35;;;3.50;;
59972;SDS011;55298;-36.624;-64.282;2023-09-30T04:18:40;4.20;;;3.42;;
59972;SDS011;55298;-36.624;-64.282;2023-09-30T04:21:07;3.80;;;3.50;;
59972;SDS011;55298;-36.624;-64.282;2023-09-30T04:23:35;5.43;;;4.05;;
59972;SDS011;55298;-36.624;-64.282;2023-09-30T04:26:03;6.20;;;4.22;;
59972;SDS011;55298;-36.624;-64.282;2023-09-30T04:28:31;9.25;;;4.25;;
59972;SDS011;55298;-36.624;-64.282;2023-09-30T04:30:59;6.65;;;4.18;;
59972;SDS011;55298;-36.624;-64.282;2023-09-30T04:33:28;4.72;;;4.00;;
59972;SDS011;55298;-36.624;-64.282;2023-09-30T04:35:56;6.70;;;4.85;;
59972;SDS011;55298;-36.624;-64.282;2023-09-30T04:38:24;4.28;;;3.97;;
59972;SDS011;55298;-36.624;-64.282;2023-09-30T04:40:52;6.00;;;4.00;;
59972;SDS011;55298;-36.624;-64.282;2023-09-30T04:43:20;4.43;;;4.00;;
59972;SDS011;55298;-36.624;-64.282;2023-09-30T04:45:48;6.30;;;3.33;;
59972;SDS011;55298;-36.624;-64.282;2023-09-30T04:48:19;3.45;;;3.13;;
59972;SDS011;55298;-36.624;-64.282;2023-09-30T04:50:46;7.60;;;3.47;;
59972;SDS011;55298;-36.624;-64.282;2023-09-30T04:53:14;3.53;;;3.25;;
59972;SDS011;55298;-36.624;-64.282;2023-09-30T04:55:43;3.45;;;3.10;;
59972;SDS011;55298;-36.624;-64.282;2023-09-30T04:58:16;3.13;;;3.03;;
59972;SDS011;55298;-36.624;-64.282;2023-09-30T05:00:44;3.30;;;3.10;;
59972;SDS011;55298;-36.624;-64.282;2023-09-30T05:03:12;4.05;;;3.13;;
59972;SDS011;55298;-36.624;-64.282;2023-09-30T05:05:41;3.60;;;3.33;;
59972;SDS011;55298;-36.624;-64.282;2023-09-30T05:08:08;3.60;;;3.28;;
59972;SDS011;55298;-36.624;-64.282;2023-09-30T05:10:42;3.03;;;2.83;;
59972;SDS011;55298;-36.624;-64.282;2023-09-30T05:13:11;3.63;;;3.40;;
59972;SDS011;55298;-36.624;-64.282;2023-09-30T05:15:40;3.22;;;3.00;;
59972;SDS011;55298;-36.624;-64.282;2023-09-30T05:18:24;3.95;;;3.10;;
59972;SDS011;55298;-36.624;-64.282;2023-09-30T05:20:53;3.53;;;3.38;;
59972;SDS011;55298;-36.624;-64.282;2023-09-30T05:23:22;3.63;;;3.40;;
59972;SDS011;55298;-36.624;-64.282;2023-09-30T05:25:50;3.30;;;3.20;;
59972;SDS011;55298;-36.624;-64.282;2023-09-30T05:30:44;2.95;;;2.75;;
59972;SDS011;55298;-36.624;-64.282;2023-09-30T05:33:13;2.97;;;2.88;;
59972;SDS011;55298;-36.624;-64.282;2023-09-30T05:35:44;3.38;;;3.08;;
59972;SDS011;55298;-36.624;-64.282;2023-09-30T05:38:12;3.83;;;3.28;;
59972;SDS011;55298;-36.624;-64.282;2023-09-30T05:40:39;4.50;;;3.63;;
59972;SDS011;55298;-36.624;-64.282;2023-09-30T05:43:09;3.53;;;3.35;;
59972;SDS011;55298;-36.624;-64.282;2023-09-30T05:45:39;3.60;;;3.40;;
59972;SDS011;55298;-36.624;-64.282;2023-09-30T05:48:15;3.50;;;3.30;;
59972;SDS011;55298;-36.624;-64.282;2023-09-30T05:50:43;7.22;;;3.97;;
59972;SDS011;55298;-36.624;-64.282;2023-09-30T05:53:10;6.15;;;3.80;;
59972;SDS011;55298;-36.624;-64.282;2023-09-30T05:55:40;3.17;;;2.95;;
59972;SDS011;55298;-36.624;-64.282;2023-09-30T05:58:09;3.20;;;3.00;;
59972;SDS011;55298;-36.624;-64.282;2023-09-30T06:00:39;3.90;;;3.00;;
59972;SDS011;55298;-36.624;-64.282;2023-09-30T06:03:08;3.80;;;3.42;;
59972;SDS011;55298;-36.624;-64.282;2023-09-30T06:05:40;4.30;;;3.55;;
59972;SDS011;55298;-36.624;-64.282;2023-09-30T06:08:09;3.97;;;3.70;;
59972;SDS011;55298;-36.624;-64.282;2023-09-30T06:10:42;3.63;;;3.38;;
59972;SDS011;55298;-36.624;-64.282;2023-09-30T06:13:10;5.00;;;3.30;;
59972;SDS011;55298;-36.624;-64.282;2023-09-30T06:15:44;4.20;;;3.83;;
59972;SDS011;55298;-36.624;-64.282;2023-09-30T06:18:12;3.20;;;3.00;;
59972;SDS011;55298;-36.624;-64.282;2023-09-30T06:20:40;3.33;;;3.20;;
59972;SDS011;55298;-36.624;-64.282;2023-09-30T06:23:08;4.05;;;3.38;;
59972;SDS011;55298;-36.624;-64.282;2023-09-30T06:25:36;3.60;;;3.28;;
59972;SDS011;55298;-36.624;-64.282;2023-09-30T06:28:05;4.10;;;3.70;;
59972;SDS011;55298;-36.624;-64.282;2023-09-30T06:30:34;3.40;;;3.20;;
59972;SDS011;55298;-36.624;-64.282;2023-09-30T06:33:02;3.53;;;3.33;;
59972;SDS011;55298;-36.624;-64.282;2023-09-30T06:35:31;3.50;;;3.20;;
59972;SDS011;55298;-36.624;-64.282;2023-09-30T06:38:03;3.50;;;3.20;;
59972;SDS011;55298;-36.624;-64.282;2023-09-30T06:40:32;3.65;;;3.35;;
59972;SDS011;55298;-36.624;-64.282;2023-09-30T06:43:00;3.40;;;3.20;;
59972;SDS011;55298;-36.624;-64.282;2023-09-30T06:45:29;3.63;;;3.42;;
59972;SDS011;55298;-36.624;-64.282;2023-09-30T06:47:58;4.40;;;3.45;;
59972;SDS011;55298;-36.624;-64.282;2023-09-30T06:50:26;3.42;;;3.22;;
59972;SDS011;55298;-36.624;-64.282;2023-09-30T06:52:54;3.65;;;3.35;;
59972;SDS011;55298;-36.624;-64.282;2023-09-30T06:55:21;3.45;;;3.15;;
59972;SDS011;55298;-36.624;-64.282;2023-09-30T06:57:50;3.42;;;3.22;;
59972;SDS011;55298;-36.624;-64.282;2023-09-30T07:02:44;3.97;;;3.75;;
59972;SDS011;55298;-36.624;-64.282;2023-09-30T07:05:12;4.13;;;3.72;;
59972;SDS011;55298;-36.624;-64.282;2023-09-30T07:07:41;3.40;;;3.30;;
59972;SDS011;55298;-36.624;-64.282;2023-09-30T07:10:11;3.88;;;3.50;;
59972;SDS011;55298;-36.624;-64.282;2023-09-30T07:12:40;3.70;;;3.40;;
59972;SDS011;55298;-36.624;-64.282;2023-09-30T07:15:08;3.58;;;3.38;;
59972;SDS011;55298;-36.624;-64.282;2023-09-30T07:17:36;3.67;;;3.40;;
59972;SDS011;55298;-36.624;-64.282;2023-09-30T07:20:12;3.73;;;3.40;;
59972;SDS011;55298;-36.624;-64.282;2023-09-30T07:22:40;4.03;;;3.70;;
59972;SDS011;55298;-36.624;-64.282;2023-09-30T07:25:08;3.63;;;3.47;;
59972;SDS011;55298;-36.624;-64.282;2023-09-30T07:27:36;3.30;;;3.20;;
59972;SDS011;55298;-36.624;-64.282;2023-09-30T07:30:04;3.50;;;3.20;;
59972;SDS011;55298;-36.624;-64.282;2023-09-30T07:32:32;3.90;;;3.65;;
59972;SDS011;55298;-36.624;-64.282;2023-09-30T07:35:00;3.75;;;3.38;;
59972;SDS011;55298;-36.624;-64.282;2023-09-30T07:37:28;3.00;;;2.90;;
59972;SDS011;55298;-36.624;-64.282;2023-09-30T07:39:55;4.55;;;4.18;;
59972;SDS011;55298;-36.624;-64.282;2023-09-30T07:42:23;3.63;;;3.22;;
59972;SDS011;55298;-36.624;-64.282;2023-09-30T07:44:51;3.65;;;3.55;;
59972;SDS011;55298;-36.624;-64.282;2023-09-30T07:47:20;4.28;;;3.83;;
59972;SDS011;55298;-36.624;-64.282;2023-09-30T07:49:47;3.58;;;3.40;;
59972;SDS011;55298;-36.624;-64.282;2023-09-30T07:52:16;3.60;;;3.30;;
59972;SDS011;55298;-36.624;-64.282;2023-09-30T07:54:44;3.75;;;3.55;;
59972;SDS011;55298;-36.624;-64.282;2023-09-30T07:57:15;3.58;;;3.38;;
59972;SDS011;55298;-36.624;-64.282;2023-09-30T07:59:43;3.63;;;3.33;;
59972;SDS011;55298;-36.624;-64.282;2023-09-30T08:02:11;3.45;;;3.15;;
59972;SDS011;55298;-36.624;-64.282;2023-09-30T08:04:39;4.00;;;3.50;;
59972;SDS011;55298;-36.624;-64.282;2023-09-30T08:07:07;3.38;;;3.17;;
59972;SDS011;55298;-36.624;-64.282;2023-09-30T08:09:40;3.45;;;3.25;;
59972;SDS011;55298;-36.624;-64.282;2023-09-30T08:12:10;3.38;;;3.08;;
59972;SDS011;55298;-36.624;-64.282;2023-09-30T08:14:38;3.60;;;3.40;;
59972;SDS011;55298;-36.624;-64.282;2023-09-30T08:17:06;4.32;;;3.50;;
59972;SDS011;55298;-36.624;-64.282;2023-09-30T08:19:35;5.28;;;3.30;;
59972;SDS011;55298;-36.624;-64.282;2023-09-30T08:22:24;4.85;;;3.55;;
59972;SDS011;55298;-36.624;-64.282;2023-09-30T08:24:54;3.88;;;3.58;;
59972;SDS011;55298;-36.624;-64.282;2023-09-30T08:27:22;3.67;;;3.47;;
59972;SDS011;55298;-36.624;-64.282;2023-09-30T08:29:50;3.92;;;3.58;;
59972;SDS011;55298;-36.624;-64.282;2023-09-30T08:32:19;4.10;;;3.80;;
59972;SDS011;55298;-36.624;-64.282;2023-09-30T08:34:48;3.35;;;3.25;;
59972;SDS011;55298;-36.624;-64.282;2023-09-30T08:37:16;4.22;;;3.70;;
59972;SDS011;55298;-36.624;-64.282;2023-09-30T08:39:44;3.58;;;3.45;;
59972;SDS011;55298;-36.624;-64.282;2023-09-30T08:42:12;3.80;;;3.50;;
59972;SDS011;55298;-36.624;-64.282;2023-09-30T08:44:40;4.28;;;3.88;;
59972;SDS011;55298;-36.624;-64.282;2023-09-30T08:47:08;3.65;;;3.45;;
59972;SDS011;55298;-36.624;-64.282;2023-09-30T08:49:37;3.50;;;3.40;;
59972;SDS011;55298;-36.624;-64.282;2023-09-30T08:52:07;3.83;;;3.60;;
59972;SDS011;55298;-36.624;-64.282;2023-09-30T08:54:36;3.70;;;3.40;;
59972;SDS011;55298;-36.624;-64.282;2023-09-30T08:57:04;4.00;;;3.80;;
59972;SDS011;55298;-36.624;-64.282;2023-09-30T08:59:34;3.63;;;3.33;;
59972;SDS011;55298;-36.624;-64.282;2023-09-30T09:02:05;3.85;;;3.63;;
59972;SDS011;55298;-36.624;-64.282;2023-09-30T09:07:03;4.68;;;3.85;;
59972;SDS011;55298;-36.624;-64.282;2023-09-30T09:09:31;3.63;;;3.40;;
59972;SDS011;55298;-36.624;-64.282;2023-09-30T09:11:59;4.13;;;3.67;;
59972;SDS011;55298;-36.624;-64.282;2023-09-30T09:17:06;4.18;;;3.88;;
59972;SDS011;55298;-36.624;-64.282;2023-09-30T09:19:38;3.60;;;3.35;;
59972;SDS011;55298;-36.624;-64.282;2023-09-30T09:22:05;3.70;;;3.35;;
59972;SDS011;55298;-36.624;-64.282;2023-09-30T09:24:34;3.88;;;3.67;;
59972;SDS011;55298;-36.624;-64.282;2023-09-30T09:27:05;4.00;;;3.80;;
59972;SDS011;55298;-36.624;-64.282;2023-09-30T09:29:37;4.90;;;4.60;;
59972;SDS011;55298;-36.624;-64.282;2023-09-30T09:32:07;5.35;;;3.67;;
59972;SDS011;55298;-36.624;-64.282;2023-09-30T09:34:39;4.40;;;4.10;;
59972;SDS011;55298;-36.624;-64.282;2023-09-30T09:37:16;3.95;;;3.75;;
59972;SDS011;55298;-36.624;-64.282;2023-09-30T09:39:52;4.10;;;3.40;;
59972;SDS011;55298;-36.624;-64.282;2023-09-30T09:42:30;4.05;;;3.65;;
59972;SDS011;55298;-36.624;-64.282;2023-09-30T09:45:00;4.15;;;3.85;;
59972;SDS011;55298;-36.624;-64.282;2023-09-30T09:47:32;4.50;;;4.10;;
59972;SDS011;55298;-36.624;-64.282;2023-09-30T09:50:03;3.80;;;3.50;;
59972;SDS011;55298;-36.624;-64.282;2023-09-30T09:52:35;3.78;;;3.50;;
59972;SDS011;55298;-36.624;-64.282;2023-09-30T09:55:06;4.10;;;3.80;;
59972;SDS011;55298;-36.624;-64.282;2023-09-30T09:57:38;4.30;;;3.90;;
59972;SDS011;55298;-36.624;-64.282;2023-09-30T10:00:06;4.18;;;3.85;;
59972;SDS011;55298;-36.624;-64.282;2023-09-30T10:02:40;5.07;;;3.42;;
59972;SDS011;55298;-36.624;-64.282;2023-09-30T10:05:09;4.15;;;3.95;;
59972;SDS011;55298;-36.624;-64.282;2023-09-30T10:07:51;6.68;;;4.22;;
59972;SDS011;55298;-36.624;-64.282;2023-09-30T10:10:25;4.05;;;3.45;;
59972;SDS011;55298;-36.624;-64.282;2023-09-30T10:13:00;4.07;;;3.78;;
59972;SDS011;55298;-36.624;-64.282;2023-09-30T10:15:37;4.97;;;3.83;;
59972;SDS011;55298;-36.624;-64.282;2023-09-30T10:18:07;5.15;;;3.60;;
59972;SDS011;55298;-36.624;-64.282;2023-09-30T10:20:40;4.22;;;3.70;;
59972;SDS011;55298;-36.624;-64.282;2023-09-30T10:23:20;3.78;;;3.67;;
59972;SDS011;55298;-36.624;-64.282;2023-09-30T10:25:54;6.10;;;4.25;;
59972;SDS011;55298;-36.624;-64.282;2023-09-30T10:28:34;4.03;;;3.83;;
59972;SDS011;55298;-36.624;-64.282;2023-09-30T10:31:10;5.50;;;5.03;;
59972;SDS011;55298;-36.624;-64.282;2023-09-30T10:36:39;6.50;;;4.53;;
59972;SDS011;55298;-36.624;-64.282;2023-09-30T10:39:11;6.28;;;4.80;;
59972;SDS011;55298;-36.624;-64.282;2023-09-30T10:47:34;5.38;;;4.05;;
59972;SDS011;55298;-36.624;-64.282;2023-09-30T10:50:04;4.30;;;4.00;;
59972;SDS011;55298;-36.624;-64.282;2023-09-30T10:53:03;5.03;;;3.42;;
59972;SDS011;55298;-36.624;-64.282;2023-09-30T10:55:32;3.75;;;3.17;;
59972;SDS011;55298;-36.624;-64.282;2023-09-30T10:58:00;3.35;;;3.15;;
59972;SDS011;55298;-36.624;-64.282;2023-09-30T11:00:29;3.42;;;3.22;;
59972;SDS011;55298;-36.624;-64.282;2023-09-30T11:02:57;4.72;;;2.88;;
59972;SDS011;55298;-36.624;-64.282;2023-09-30T11:05:26;2.65;;;2.45;;
59972;SDS011;55298;-36.624;-64.282;2023-09-30T11:07:55;3.33;;;2.95;;
59972;SDS011;55298;-36.624;-64.282;2023-09-30T11:10:25;2.78;;;2.58;;
59972;SDS011;55298;-36.624;-64.282;2023-09-30T11:12:54;2.80;;;2.70;;
59972;SDS011;55298;-36.624;-64.282;2023-09-30T11:15:23;2.80;;;2.60;;
59972;SDS011;55298;-36.624;-64.282;2023-09-30T11:17:53;4.05;;;3.22;;
59972;SDS011;55298;-36.624;-64.282;2023-09-30T11:20:39;4.82;;;2.58;;
59972;SDS011;55298;-36.624;-64.282;2023-09-30T11:23:07;2.92;;;2.75;;
59972;SDS011;55298;-36.624;-64.282;2023-09-30T11:25:36;5.13;;;3.10;;
59972;SDS011;55298;-36.624;-64.282;2023-09-30T11:28:16;3.90;;;3.60;;
59972;SDS011;55298;-36.624;-64.282;2023-09-30T11:33:25;2.95;;;2.40;;
59972;SDS011;55298;-36.624;-64.282;2023-09-30T11:35:56;3.05;;;2.85;;
59972;SDS011;55298;-36.624;-64.282;2023-09-30T11:38:27;6.45;;;2.75;;
59972;SDS011;55298;-36.624;-64.282;2023-09-30T11:40:59;5.28;;;2.78;;
59972;SDS011;55298;-36.624;-64.282;2023-09-30T11:43:32;5.30;;;3.45;;
59972;SDS011;55298;-36.624;-64.282;2023-09-30T11:46:04;4.35;;;3.95;;
59972;SDS011;55298;-36.624;-64.282;2023-09-30T11:49:06;6.05;;;2.92;;
59972;SDS011;55298;-36.624;-64.282;2023-09-30T11:51:42;2.70;;;2.50;;
59972;SDS011;55298;-36.624;-64.282;2023-09-30T11:54:14;4.28;;;2.78;;
59972;SDS011;55298;-36.624;-64.282;2023-09-30T11:56:45;2.58;;;2.38;;
59972;SDS011;55298;-36.624;-64.282;2023-09-30T11:59:16;4.60;;;2.50;;
59972;SDS011;55298;-36.624;-64.282;2023-09-30T12:01:48;4.93;;;3.20;;
59972;SDS011;55298;-36.624;-64.282;2023-09-30T12:04:17;2.35;;;1.98;;
59972;SDS011;55298;-36.624;-64.282;2023-09-30T12:06:45;2.35;;;2.15;;
59972;SDS011;55298;-36.624;-64.282;2023-09-30T12:09:15;3.75;;;2.40;;
59972;SDS011;55298;-36.624;-64.282;2023-09-30T12:11:48;2.28;;;1.98;;
59972;SDS011;55298;-36.624;-64.282;2023-09-30T12:14:16;3.20;;;2.15;;
59972;SDS011;55298;-36.624;-64.282;2023-09-30T12:16:46;4.20;;;2.55;;
59972;SDS011;55298;-36.624;-64.282;2023-09-30T12:19:16;3.33;;;2.20;;
59972;SDS011;55298;-36.624;-64.282;2023-09-30T12:21:45;3.25;;;2.08;;
59972;SDS011;55298;-36.624;-64.282;2023-09-30T12:24:14;3.05;;;2.40;;
59972;SDS011;55298;-36.624;-64.282;2023-09-30T12:26:43;3.08;;;2.00;;
59972;SDS011;55298;-36.624;-64.282;2023-09-30T12:29:14;5.50;;;2.10;;
59972;SDS011;55298;-36.624;-64.282;2023-09-30T12:31:43;2.58;;;2.25;;
59972;SDS011;55298;-36.624;-64.282;2023-09-30T12:34:12;3.45;;;2.20;;
59972;SDS011;55298;-36.624;-64.282;2023-09-30T12:36:40;3.05;;;2.20;;
59972;SDS011;55298;-36.624;-64.282;2023-09-30T12:39:10;5.40;;;2.50;;
59972;SDS011;55298;-36.624;-64.282;2023-09-30T12:41:43;2.95;;;1.90;;
59972;SDS011;55298;-36.624;-64.282;2023-09-30T12:44:11;3.72;;;2.30;;
59972;SDS011;55298;-36.624;-64.282;2023-09-30T12:46:40;3.60;;;2.05;;
59972;SDS011;55298;-36.624;-64.282;2023-09-30T12:49:08;4.45;;;1.95;;
59972;SDS011;55298;-36.624;-64.282;2023-09-30T12:51:37;3.15;;;1.90;;
59972;SDS011;55298;-36.624;-64.282;2023-09-30T12:54:05;2.45;;;2.00;;
59972;SDS011;55298;-36.624;-64.282;2023-09-30T12:56:36;4.53;;;2.10;;
59972;SDS011;55298;-36.624;-64.282;2023-09-30T12:59:04;2.72;;;2.10;;
59972;SDS011;55298;-36.624;-64.282;2023-09-30T13:01:32;1.65;;;1.50;;
59972;SDS011;55298;-36.624;-64.282;2023-09-30T13:04:00;4.10;;;1.90;;
59972;SDS011;55298;-36.624;-64.282;2023-09-30T13:06:28;4.60;;;1.88;;
59972;SDS011;55298;-36.624;-64.282;2023-09-30T13:09:01;5.75;;;2.20;;
59972;SDS011;55298;-36.624;-64.282;2023-09-30T13:11:30;4.88;;;1.77;;
59972;SDS011;55298;-36.624;-64.282;2023-09-30T13:13:58;3.63;;;3.33;;
59972;SDS011;55298;-36.624;-64.282;2023-09-30T13:16:26;1.70;;;1.60;;
59972;SDS011;55298;-36.624;-64.282;2023-09-30T13:18:54;4.43;;;2.90;;
59972;SDS011;55298;-36.624;-64.282;2023-09-30T13:21:23;4.25;;;2.70;;
59972;SDS011;55298;-36.624;-64.282;2023-09-30T13:23:58;1.73;;;1.60;;
59972;SDS011;55298;-36.624;-64.282;2023-09-30T13:27:03;4.55;;;2.08;;
59972;SDS011;55298;-36.624;-64.282;2023-09-30T13:29:44;2.00;;;1.75;;
59972;SDS011;55298;-36.624;-64.282;2023-09-30T13:32:12;2.60;;;2.15;;
59972;SDS011;55298;-36.624;-64.282;2023-09-30T13:34:44;2.13;;;1.60;;
59972;SDS011;55298;-36.624;-64.282;2023-09-30T13:37:14;2.55;;;1.80;;
59972;SDS011;55298;-36.624;-64.282;2023-09-30T13:39:46;2.03;;;1.80;;
59972;SDS011;55298;-36.624;-64.282;2023-09-30T13:42:18;2.75;;;1.50;;
59972;SDS011;55298;-36.624;-64.282;2023-09-30T13:44:49;3.60;;;1.67;;
59972;SDS011;55298;-36.624;-64.282;2023-09-30T13:47:17;2.50;;;1.70;;
59972;SDS011;55298;-36.624;-64.282;2023-09-30T13:49:45;1.52;;;1.42;;
59972;SDS011;55298;-36.624;-64.282;2023-09-30T13:52:14;3.05;;;1.70;;
59972;SDS011;55298;-36.624;-64.282;2023-09-30T13:54:41;3.75;;;1.70;;
59972;SDS011;55298;-36.624;-64.282;2023-09-30T13:57:12;2.45;;;2.28;;
59972;SDS011;55298;-36.624;-64.282;2023-09-30T13:59:41;2.53;;;1.80;;
59972;SDS011;55298;-36.624;-64.282;2023-09-30T14:02:09;3.88;;;1.50;;
59972;SDS011;55298;-36.624;-64.282;2023-09-30T14:04:36;2.13;;;1.45;;
59972;SDS011;55298;-36.624;-64.282;2023-09-30T14:07:04;1.65;;;1.52;;
59972;SDS011;55298;-36.624;-64.282;2023-09-30T14:09:33;2.90;;;1.50;;
59972;SDS011;55298;-36.624;-64.282;2023-09-30T14:12:01;1.88;;;1.67;;
59972;SDS011;55298;-36.624;-64.282;2023-09-30T14:14:31;2.33;;;1.40;;
59972;SDS011;55298;-36.624;-64.282;2023-09-30T14:17:02;2.70;;;2.03;;
59972;SDS011;55298;-36.624;-64.282;2023-09-30T14:19:37;2.90;;;2.70;;
59972;SDS011;55298;-36.624;-64.282;2023-09-30T14:22:06;5.60;;;2.38;;
59972;SDS011;55298;-36.624;-64.282;2023-09-30T14:24:35;2.08;;;1.52;;
59972;SDS011;55298;-36.624;-64.282;2023-09-30T14:27:04;2.60;;;1.98;;
59972;SDS011;55298;-36.624;-64.282;2023-09-30T14:29:33;5.85;;;2.25;;
59972;SDS011;55298;-36.624;-64.282;2023-09-30T14:32:00;2.92;;;1.38;;
59972;SDS011;55298;-36.624;-64.282;2023-09-30T14:34:28;1.60;;;1.50;;
59972;SDS011;55298;-36.624;-64.282;2023-09-30T14:36:57;3.38;;;1.60;;
59972;SDS011;55298;-36.624;-64.282;2023-09-30T14:39:25;1.75;;;1.40;;
59972;SDS011;55298;-36.624;-64.282;2023-09-30T14:41:53;1.80;;;1.70;;
59972;SDS011;55298;-36.624;-64.282;2023-09-30T14:44:21;2.30;;;1.50;;